Bogande Airport


Codes: DFEB/XBG
Name: Bogande Airport
City: Bogande
Country: Burkina Faso
Elevation: 984 ft.

Photos at Bogande Airport


   Photos courtesy of SpottingLog. You can add your own sightings and photos by signing up for a free trial today.



No photos found.

Weather at Bogande Airport


Time (UTC)DescriptionTempratureWindCloud coverageVisibilityPressureHumidity
21-Jun-2024 12:00Overcast Clouds34°C11 mph, SW100%10000m1011hPa44%
21-Jun-2024 15:00Overcast Clouds35°C7 mph, SW99%10000m1010hPa40%
21-Jun-2024 18:00Overcast Clouds35°C9 mph, S98%10000m1009hPa36%
21-Jun-2024 21:00Few Clouds33°C13 mph, S20%10000m1011hPa41%
22-Jun-2024 00:00Few Clouds32°C11 mph, S18%10000m1010hPa45%
22-Jun-2024 03:00Scattered Clouds29°C9 mph, SW50%10000m1010hPa54%
22-Jun-2024 06:00Broken Clouds29°C13 mph, SW56%10000m1011hPa56%
22-Jun-2024 09:00Scattered Clouds32°C16 mph, SW36%10000m1011hPa49%
22-Jun-2024 12:00Scattered Clouds36°C13 mph, SW47%10000m1009hPa37%
22-Jun-2024 15:00Scattered Clouds38°C11 mph, S25%10000m1007hPa31%
22-Jun-2024 18:00Few Clouds37°C9 mph, S22%10000m1007hPa31%
22-Jun-2024 21:00Broken Clouds35°C9 mph, S58%10000m1008hPa38%
23-Jun-2024 00:00Scattered Clouds33°C13 mph, S30%10000m1009hPa46%
23-Jun-2024 03:00Scattered Clouds31°C18 mph, S29%10000m1008hPa49%
23-Jun-2024 06:00Few Clouds30°C11 mph, SW18%10000m1010hPa55%
23-Jun-2024 09:00Few Clouds32°C11 mph, SW24%10000m1013hPa47%
23-Jun-2024 12:00Scattered Clouds36°C13 mph, SW43%10000m1009hPa37%
23-Jun-2024 15:00Overcast Clouds38°C9 mph, SW100%10000m1007hPa30%
23-Jun-2024 18:00Overcast Clouds38°C9 mph, SW100%10000m1007hPa30%
23-Jun-2024 21:00Overcast Clouds36°C9 mph, S100%10000m1008hPa36%
24-Jun-2024 00:00Light Rain33°C13 mph, SW91%10000m1008hPa43%
24-Jun-2024 03:00Light Rain31°C13 mph, SW94%10000m1009hPa50%
24-Jun-2024 06:00Light Rain30°C11 mph, SW97%10000m1010hPa56%
24-Jun-2024 09:00Overcast Clouds32°C13 mph, SW100%10000m1011hPa48%
24-Jun-2024 12:00Overcast Clouds36°C16 mph, SW100%10000m1009hPa38%
24-Jun-2024 15:00Overcast Clouds37°C13 mph, SW100%10000m1007hPa33%
24-Jun-2024 18:00Overcast Clouds36°C11 mph, SW100%10000m1007hPa34%
24-Jun-2024 21:00Overcast Clouds34°C11 mph, SW100%10000m1008hPa42%
25-Jun-2024 00:00Overcast Clouds33°C11 mph, SW100%10000m1009hPa46%
25-Jun-2024 03:00Overcast Clouds32°C11 mph, SW97%10000m1008hPa47%
25-Jun-2024 06:00Broken Clouds30°C11 mph, SW73%10000m1009hPa58%
25-Jun-2024 09:00Overcast Clouds31°C16 mph, S100%10000m1011hPa54%
25-Jun-2024 12:00Moderate Rain25°C29 mph, SE100%10000m1015hPa70%
25-Jun-2024 15:00Light Rain29°C18 mph, SE100%10000m1011hPa48%
25-Jun-2024 18:00Overcast Clouds29°C11 mph, SW100%10000m1008hPa50%
25-Jun-2024 21:00Overcast Clouds27°C9 mph, W98%10000m1010hPa58%
26-Jun-2024 00:00Overcast Clouds26°C4 mph, W99%10000m1011hPa62%
26-Jun-2024 03:00Overcast Clouds25°C9 mph, S97%10000m1009hPa66%
26-Jun-2024 06:00Overcast Clouds25°C9 mph, S98%10000m1010hPa69%
26-Jun-2024 09:00Overcast Clouds29°C13 mph, S98%10000m1011hPa50%